sensor_id;sensor_type;location;lat;lon;timestamp;P1;durP1;ratioP1;P2;durP2;ratioP2
12433;SDS011;6281;49.038;8.372;2023-12-14T00:00:28;5.93;;;4.10;;
12433;SDS011;6281;49.038;8.372;2023-12-14T00:02:56;7.03;;;4.00;;
12433;SDS011;6281;49.038;8.372;2023-12-14T00:05:24;5.37;;;4.13;;
12433;SDS011;6281;49.038;8.372;2023-12-14T00:07:51;5.33;;;4.07;;
12433;SDS011;6281;49.038;8.372;2023-12-14T00:10:18;6.73;;;4.40;;
12433;SDS011;6281;49.038;8.372;2023-12-14T00:12:45;6.50;;;4.20;;
12433;SDS011;6281;49.038;8.372;2023-12-14T00:15:14;5.90;;;4.37;;
12433;SDS011;6281;49.038;8.372;2023-12-14T00:17:41;6.87;;;4.63;;
12433;SDS011;6281;49.038;8.372;2023-12-14T00:20:08;6.10;;;4.53;;
12433;SDS011;6281;49.038;8.372;2023-12-14T00:22:37;7.43;;;4.63;;
12433;SDS011;6281;49.038;8.372;2023-12-14T00:25:04;7.77;;;5.43;;
12433;SDS011;6281;49.038;8.372;2023-12-14T00:27:31;5.83;;;5.00;;
12433;SDS011;6281;49.038;8.372;2023-12-14T00:29:58;9.20;;;6.13;;
12433;SDS011;6281;49.038;8.372;2023-12-14T00:32:25;7.97;;;5.67;;
12433;SDS011;6281;49.038;8.372;2023-12-14T00:34:52;9.90;;;5.83;;
12433;SDS011;6281;49.038;8.372;2023-12-14T00:37:19;7.73;;;5.80;;
12433;SDS011;6281;49.038;8.372;2023-12-14T00:39:48;7.40;;;5.80;;
12433;SDS011;6281;49.038;8.372;2023-12-14T00:42:15;8.53;;;6.10;;
12433;SDS011;6281;49.038;8.372;2023-12-14T00:44:41;10.00;;;6.57;;
12433;SDS011;6281;49.038;8.372;2023-12-14T00:47:10;9.90;;;7.00;;
12433;SDS011;6281;49.038;8.372;2023-12-14T00:49:36;9.07;;;7.03;;
12433;SDS011;6281;49.038;8.372;2023-12-14T00:52:04;10.13;;;7.47;;
12433;SDS011;6281;49.038;8.372;2023-12-14T00:54:31;11.30;;;8.17;;
12433;SDS011;6281;49.038;8.372;2023-12-14T00:57:00;10.73;;;7.87;;
12433;SDS011;6281;49.038;8.372;2023-12-14T00:59:42;11.43;;;8.13;;
12433;SDS011;6281;49.038;8.372;2023-12-14T01:02:09;13.93;;;8.03;;
12433;SDS011;6281;49.038;8.372;2023-12-14T01:04:38;11.67;;;8.03;;
12433;SDS011;6281;49.038;8.372;2023-12-14T01:07:05;14.70;;;7.93;;
12433;SDS011;6281;49.038;8.372;2023-12-14T01:09:32;16.40;;;8.87;;
12433;SDS011;6281;49.038;8.372;2023-12-14T01:12:00;12.77;;;8.67;;
12433;SDS011;6281;49.038;8.372;2023-12-14T01:14:27;15.70;;;10.20;;
12433;SDS011;6281;49.038;8.372;2023-12-14T01:16:54;13.33;;;9.70;;
12433;SDS011;6281;49.038;8.372;2023-12-14T01:19:28;17.23;;;10.93;;
12433;SDS011;6281;49.038;8.372;2023-12-14T01:21:58;11.90;;;8.47;;
12433;SDS011;6281;49.038;8.372;2023-12-14T01:24:25;13.07;;;9.03;;
12433;SDS011;6281;49.038;8.372;2023-12-14T01:26:52;12.93;;;9.40;;
12433;SDS011;6281;49.038;8.372;2023-12-14T01:29:21;13.53;;;9.10;;
12433;SDS011;6281;49.038;8.372;2023-12-14T01:31:48;13.17;;;9.63;;
12433;SDS011;6281;49.038;8.372;2023-12-14T01:34:15;15.00;;;9.80;;
12433;SDS011;6281;49.038;8.372;2023-12-14T01:36:42;14.77;;;9.80;;
12433;SDS011;6281;49.038;8.372;2023-12-14T01:39:08;14.57;;;9.87;;
12433;SDS011;6281;49.038;8.372;2023-12-14T01:41:35;13.13;;;9.50;;
12433;SDS011;6281;49.038;8.372;2023-12-14T01:44:02;17.30;;;9.47;;
12433;SDS011;6281;49.038;8.372;2023-12-14T01:46:31;14.90;;;9.63;;
12433;SDS011;6281;49.038;8.372;2023-12-14T01:48:58;15.57;;;9.90;;
12433;SDS011;6281;49.038;8.372;2023-12-14T01:51:25;14.27;;;9.93;;
12433;SDS011;6281;49.038;8.372;2023-12-14T01:53:51;15.73;;;9.33;;
12433;SDS011;6281;49.038;8.372;2023-12-14T01:56:18;11.93;;;8.50;;
12433;SDS011;6281;49.038;8.372;2023-12-14T01:58:45;14.07;;;9.67;;
12433;SDS011;6281;49.038;8.372;2023-12-14T02:01:14;15.00;;;8.63;;
12433;SDS011;6281;49.038;8.372;2023-12-14T02:03:48;13.93;;;8.93;;
12433;SDS011;6281;49.038;8.372;2023-12-14T02:06:17;12.47;;;8.60;;
12433;SDS011;6281;49.038;8.372;2023-12-14T02:08:44;11.23;;;8.73;;
12433;SDS011;6281;49.038;8.372;2023-12-14T02:11:11;15.70;;;8.93;;
12433;SDS011;6281;49.038;8.372;2023-12-14T02:13:38;13.10;;;8.33;;
12433;SDS011;6281;49.038;8.372;2023-12-14T02:16:05;13.13;;;8.60;;
12433;SDS011;6281;49.038;8.372;2023-12-14T02:18:33;12.80;;;8.50;;
12433;SDS011;6281;49.038;8.372;2023-12-14T02:21:01;11.00;;;8.10;;
12433;SDS011;6281;49.038;8.372;2023-12-14T02:23:29;13.17;;;8.60;;
12433;SDS011;6281;49.038;8.372;2023-12-14T02:25:55;11.13;;;8.27;;
12433;SDS011;6281;49.038;8.372;2023-12-14T02:28:22;12.23;;;8.67;;
12433;SDS011;6281;49.038;8.372;2023-12-14T02:30:49;14.33;;;8.97;;
12433;SDS011;6281;49.038;8.372;2023-12-14T02:33:16;11.30;;;8.50;;
12433;SDS011;6281;49.038;8.372;2023-12-14T02:35:43;12.80;;;8.63;;
12433;SDS011;6281;49.038;8.372;2023-12-14T02:38:10;12.47;;;8.47;;
12433;SDS011;6281;49.038;8.372;2023-12-14T02:40:38;10.27;;;8.20;;
12433;SDS011;6281;49.038;8.372;2023-12-14T02:43:05;11.00;;;8.77;;
12433;SDS011;6281;49.038;8.372;2023-12-14T02:45:32;13.90;;;8.63;;
12433;SDS011;6281;49.038;8.372;2023-12-14T02:47:59;15.67;;;8.70;;
12433;SDS011;6281;49.038;8.372;2023-12-14T02:50:26;13.10;;;9.13;;
12433;SDS011;6281;49.038;8.372;2023-12-14T02:52:53;14.03;;;8.70;;
12433;SDS011;6281;49.038;8.372;2023-12-14T02:55:20;14.70;;;9.30;;
12433;SDS011;6281;49.038;8.372;2023-12-14T02:57:48;13.07;;;9.17;;
12433;SDS011;6281;49.038;8.372;2023-12-14T03:00:15;11.83;;;8.50;;
12433;SDS011;6281;49.038;8.372;2023-12-14T03:02:42;13.40;;;8.90;;
12433;SDS011;6281;49.038;8.372;2023-12-14T03:05:09;15.07;;;9.60;;
12433;SDS011;6281;49.038;8.372;2023-12-14T03:07:36;11.47;;;8.80;;
12433;SDS011;6281;49.038;8.372;2023-12-14T03:10:03;11.77;;;8.37;;
12433;SDS011;6281;49.038;8.372;2023-12-14T03:12:31;14.83;;;8.93;;
12433;SDS011;6281;49.038;8.372;2023-12-14T03:14:59;12.77;;;8.67;;
12433;SDS011;6281;49.038;8.372;2023-12-14T03:17:26;13.57;;;8.77;;
12433;SDS011;6281;49.038;8.372;2023-12-14T03:19:53;14.47;;;9.17;;
12433;SDS011;6281;49.038;8.372;2023-12-14T03:22:20;11.83;;;8.30;;
12433;SDS011;6281;49.038;8.372;2023-12-14T03:24:46;12.00;;;8.27;;
12433;SDS011;6281;49.038;8.372;2023-12-14T03:27:13;14.47;;;8.80;;
12433;SDS011;6281;49.038;8.372;2023-12-14T03:29:40;15.83;;;9.47;;
12433;SDS011;6281;49.038;8.372;2023-12-14T03:32:09;11.87;;;8.23;;
12433;SDS011;6281;49.038;8.372;2023-12-14T03:34:36;12.40;;;8.50;;
12433;SDS011;6281;49.038;8.372;2023-12-14T03:37:03;13.43;;;9.00;;
12433;SDS011;6281;49.038;8.372;2023-12-14T03:39:30;11.97;;;8.20;;
12433;SDS011;6281;49.038;8.372;2023-12-14T03:41:57;13.23;;;8.77;;
12433;SDS011;6281;49.038;8.372;2023-12-14T03:44:23;13.03;;;9.50;;
12433;SDS011;6281;49.038;8.372;2023-12-14T03:46:50;13.93;;;9.37;;
12433;SDS011;6281;49.038;8.372;2023-12-14T03:49:20;13.73;;;9.63;;
12433;SDS011;6281;49.038;8.372;2023-12-14T03:51:47;13.47;;;9.47;;
12433;SDS011;6281;49.038;8.372;2023-12-14T03:54:14;14.40;;;9.90;;
12433;SDS011;6281;49.038;8.372;2023-12-14T03:56:41;15.53;;;10.17;;
12433;SDS011;6281;49.038;8.372;2023-12-14T03:59:08;14.30;;;9.57;;
12433;SDS011;6281;49.038;8.372;2023-12-14T04:01:34;16.87;;;9.73;;
12433;SDS011;6281;49.038;8.372;2023-12-14T04:04:04;14.30;;;10.30;;
12433;SDS011;6281;49.038;8.372;2023-12-14T04:06:32;15.17;;;10.20;;
12433;SDS011;6281;49.038;8.372;2023-12-14T04:08:59;14.20;;;9.73;;
12433;SDS011;6281;49.038;8.372;2023-12-14T04:11:26;14.40;;;9.90;;
12433;SDS011;6281;49.038;8.372;2023-12-14T04:13:53;17.27;;;10.17;;
12433;SDS011;6281;49.038;8.372;2023-12-14T04:16:20;16.37;;;11.03;;
12433;SDS011;6281;49.038;8.372;2023-12-14T04:18:47;15.53;;;10.30;;
12433;SDS011;6281;49.038;8.372;2023-12-14T04:21:14;15.30;;;9.33;;
12433;SDS011;6281;49.038;8.372;2023-12-14T04:23:42;13.67;;;10.10;;
12433;SDS011;6281;49.038;8.372;2023-12-14T04:26:10;14.37;;;9.57;;
12433;SDS011;6281;49.038;8.372;2023-12-14T04:28:38;14.53;;;9.80;;
12433;SDS011;6281;49.038;8.372;2023-12-14T04:31:05;18.57;;;10.67;;
12433;SDS011;6281;49.038;8.372;2023-12-14T04:33:32;17.90;;;11.53;;
12433;SDS011;6281;49.038;8.372;2023-12-14T04:35:59;18.10;;;12.03;;
12433;SDS011;6281;49.038;8.372;2023-12-14T04:38:25;16.93;;;12.40;;
12433;SDS011;6281;49.038;8.372;2023-12-14T04:40:53;19.33;;;12.40;;
12433;SDS011;6281;49.038;8.372;2023-12-14T04:43:20;17.60;;;12.33;;
12433;SDS011;6281;49.038;8.372;2023-12-14T04:45:47;18.47;;;11.77;;
12433;SDS011;6281;49.038;8.372;2023-12-14T04:48:14;17.73;;;11.73;;
12433;SDS011;6281;49.038;8.372;2023-12-14T04:50:40;15.50;;;11.30;;
12433;SDS011;6281;49.038;8.372;2023-12-14T04:53:07;20.13;;;12.27;;
12433;SDS011;6281;49.038;8.372;2023-12-14T04:55:34;16.67;;;11.10;;
12433;SDS011;6281;49.038;8.372;2023-12-14T04:58:02;17.83;;;11.40;;
12433;SDS011;6281;49.038;8.372;2023-12-14T05:00:29;16.80;;;12.07;;
12433;SDS011;6281;49.038;8.372;2023-12-14T05:02:56;16.37;;;11.43;;
12433;SDS011;6281;49.038;8.372;2023-12-14T05:05:23;17.13;;;11.10;;
12433;SDS011;6281;49.038;8.372;2023-12-14T05:07:50;16.83;;;12.03;;
12433;SDS011;6281;49.038;8.372;2023-12-14T05:10:17;17.63;;;11.80;;
12433;SDS011;6281;49.038;8.372;2023-12-14T05:12:44;18.13;;;11.67;;
12433;SDS011;6281;49.038;8.372;2023-12-14T05:15:12;17.57;;;12.23;;
12433;SDS011;6281;49.038;8.372;2023-12-14T05:17:39;18.97;;;12.87;;
12433;SDS011;6281;49.038;8.372;2023-12-14T05:20:07;17.70;;;12.93;;
12433;SDS011;6281;49.038;8.372;2023-12-14T05:22:35;18.53;;;13.17;;
12433;SDS011;6281;49.038;8.372;2023-12-14T05:25:02;17.67;;;12.00;;
12433;SDS011;6281;49.038;8.372;2023-12-14T05:27:29;19.07;;;13.73;;
12433;SDS011;6281;49.038;8.372;2023-12-14T05:29:56;17.60;;;12.77;;
12433;SDS011;6281;49.038;8.372;2023-12-14T05:32:24;21.17;;;13.50;;
12433;SDS011;6281;49.038;8.372;2023-12-14T05:34:51;23.33;;;13.40;;
12433;SDS011;6281;49.038;8.372;2023-12-14T05:37:18;20.77;;;13.57;;
12433;SDS011;6281;49.038;8.372;2023-12-14T05:39:45;17.30;;;12.43;;
12433;SDS011;6281;49.038;8.372;2023-12-14T05:42:12;19.23;;;12.60;;
12433;SDS011;6281;49.038;8.372;2023-12-14T05:44:42;18.53;;;12.70;;
12433;SDS011;6281;49.038;8.372;2023-12-14T05:47:10;19.13;;;13.50;;
12433;SDS011;6281;49.038;8.372;2023-12-14T05:49:40;18.80;;;12.37;;
12433;SDS011;6281;49.038;8.372;2023-12-14T05:52:07;17.73;;;12.60;;
12433;SDS011;6281;49.038;8.372;2023-12-14T05:54:35;17.37;;;11.53;;
12433;SDS011;6281;49.038;8.372;2023-12-14T05:57:02;17.63;;;11.67;;
12433;SDS011;6281;49.038;8.372;2023-12-14T05:59:29;16.13;;;12.13;;
12433;SDS011;6281;49.038;8.372;2023-12-14T06:01:56;17.53;;;12.00;;
12433;SDS011;6281;49.038;8.372;2023-12-14T06:04:24;16.87;;;12.13;;
12433;SDS011;6281;49.038;8.372;2023-12-14T06:06:53;17.83;;;12.67;;
12433;SDS011;6281;49.038;8.372;2023-12-14T06:09:20;20.27;;;12.37;;
12433;SDS011;6281;49.038;8.372;2023-12-14T06:11:51;17.33;;;12.10;;
12433;SDS011;6281;49.038;8.372;2023-12-14T06:14:18;17.20;;;11.90;;
12433;SDS011;6281;49.038;8.372;2023-12-14T06:16:45;17.47;;;12.43;;
12433;SDS011;6281;49.038;8.372;2023-12-14T06:19:12;20.13;;;12.67;;
12433;SDS011;6281;49.038;8.372;2023-12-14T06:21:39;18.07;;;12.80;;
12433;SDS011;6281;49.038;8.372;2023-12-14T06:24:08;19.37;;;12.47;;
12433;SDS011;6281;49.038;8.372;2023-12-14T06:26:35;18.30;;;12.20;;
12433;SDS011;6281;49.038;8.372;2023-12-14T06:29:06;15.70;;;11.63;;
12433;SDS011;6281;49.038;8.372;2023-12-14T06:31:33;15.80;;;11.07;;
12433;SDS011;6281;49.038;8.372;2023-12-14T06:34:00;17.63;;;11.60;;
12433;SDS011;6281;49.038;8.372;2023-12-14T06:36:28;14.83;;;11.20;;
12433;SDS011;6281;49.038;8.372;2023-12-14T06:38:55;19.00;;;12.23;;
12433;SDS011;6281;49.038;8.372;2023-12-14T06:41:24;17.50;;;12.63;;
12433;SDS011;6281;49.038;8.372;2023-12-14T06:43:52;19.10;;;12.00;;
12433;SDS011;6281;49.038;8.372;2023-12-14T06:46:19;18.20;;;12.27;;
12433;SDS011;6281;49.038;8.372;2023-12-14T06:48:47;19.03;;;12.30;;
12433;SDS011;6281;49.038;8.372;2023-12-14T06:51:15;16.47;;;11.97;;
12433;SDS011;6281;49.038;8.372;2023-12-14T06:53:43;17.77;;;11.90;;
12433;SDS011;6281;49.038;8.372;2023-12-14T06:56:11;16.47;;;10.87;;
12433;SDS011;6281;49.038;8.372;2023-12-14T06:58:40;17.10;;;10.63;;
12433;SDS011;6281;49.038;8.372;2023-12-14T07:01:10;19.40;;;11.73;;
12433;SDS011;6281;49.038;8.372;2023-12-14T07:03:39;15.67;;;11.80;;
12433;SDS011;6281;49.038;8.372;2023-12-14T07:06:06;17.87;;;11.20;;
12433;SDS011;6281;49.038;8.372;2023-12-14T07:08:34;18.67;;;12.00;;
12433;SDS011;6281;49.038;8.372;2023-12-14T07:11:01;20.13;;;12.47;;
12433;SDS011;6281;49.038;8.372;2023-12-14T07:13:28;16.47;;;11.83;;
12433;SDS011;6281;49.038;8.372;2023-12-14T07:15:56;21.77;;;12.23;;
12433;SDS011;6281;49.038;8.372;2023-12-14T07:18:23;16.13;;;11.60;;
12433;SDS011;6281;49.038;8.372;2023-12-14T07:20:50;18.50;;;11.83;;
12433;SDS011;6281;49.038;8.372;2023-12-14T07:23:17;17.97;;;11.33;;
12433;SDS011;6281;49.038;8.372;2023-12-14T07:25:44;19.77;;;12.50;;
12433;SDS011;6281;49.038;8.372;2023-12-14T07:28:10;18.03;;;11.87;;
12433;SDS011;6281;49.038;8.372;2023-12-14T07:30:37;17.37;;;11.67;;
12433;SDS011;6281;49.038;8.372;2023-12-14T07:33:06;15.50;;;10.93;;
12433;SDS011;6281;49.038;8.372;2023-12-14T07:35:33;17.23;;;10.87;;
12433;SDS011;6281;49.038;8.372;2023-12-14T07:38:00;15.40;;;11.27;;
12433;SDS011;6281;49.038;8.372;2023-12-14T07:40:27;18.30;;;11.53;;
12433;SDS011;6281;49.038;8.372;2023-12-14T07:42:54;16.57;;;10.57;;
12433;SDS011;6281;49.038;8.372;2023-12-14T07:45:20;17.33;;;11.30;;
12433;SDS011;6281;49.038;8.372;2023-12-14T07:47:47;17.90;;;11.40;;
12433;SDS011;6281;49.038;8.372;2023-12-14T07:50:17;17.57;;;10.60;;
12433;SDS011;6281;49.038;8.372;2023-12-14T07:52:44;14.60;;;9.83;;
12433;SDS011;6281;49.038;8.372;2023-12-14T07:55:11;14.93;;;9.93;;
12433;SDS011;6281;49.038;8.372;2023-12-14T07:57:39;18.00;;;11.80;;
12433;SDS011;6281;49.038;8.372;2023-12-14T08:00:06;16.50;;;10.90;;
12433;SDS011;6281;49.038;8.372;2023-12-14T08:02:35;17.93;;;11.23;;
12433;SDS011;6281;49.038;8.372;2023-12-14T08:05:02;15.43;;;10.40;;
12433;SDS011;6281;49.038;8.372;2023-12-14T08:07:31;14.77;;;9.57;;
12433;SDS011;6281;49.038;8.372;2023-12-14T08:09:58;16.17;;;10.83;;
12433;SDS011;6281;49.038;8.372;2023-12-14T08:12:25;15.13;;;10.07;;
12433;SDS011;6281;49.038;8.372;2023-12-14T08:14:53;14.93;;;9.90;;
12433;SDS011;6281;49.038;8.372;2023-12-14T08:17:20;15.30;;;9.67;;
12433;SDS011;6281;49.038;8.372;2023-12-14T08:19:47;16.20;;;10.60;;
12433;SDS011;6281;49.038;8.372;2023-12-14T08:22:14;15.63;;;10.10;;
12433;SDS011;6281;49.038;8.372;2023-12-14T08:24:42;16.13;;;10.17;;
12433;SDS011;6281;49.038;8.372;2023-12-14T08:27:09;13.67;;;9.50;;
12433;SDS011;6281;49.038;8.372;2023-12-14T08:29:36;12.17;;;9.30;;
12433;SDS011;6281;49.038;8.372;2023-12-14T08:32:04;14.93;;;9.73;;
12433;SDS011;6281;49.038;8.372;2023-12-14T08:34:31;13.67;;;8.70;;
12433;SDS011;6281;49.038;8.372;2023-12-14T08:37:00;15.03;;;9.83;;
12433;SDS011;6281;49.038;8.372;2023-12-14T08:39:27;16.33;;;9.97;;
12433;SDS011;6281;49.038;8.372;2023-12-14T08:41:55;16.33;;;9.47;;
12433;SDS011;6281;49.038;8.372;2023-12-14T08:44:22;14.60;;;9.33;;
12433;SDS011;6281;49.038;8.372;2023-12-14T08:46:49;13.63;;;9.43;;
12433;SDS011;6281;49.038;8.372;2023-12-14T08:49:16;13.20;;;8.80;;
12433;SDS011;6281;49.038;8.372;2023-12-14T08:51:43;17.27;;;9.33;;
12433;SDS011;6281;49.038;8.372;2023-12-14T08:54:10;14.37;;;9.37;;
12433;SDS011;6281;49.038;8.372;2023-12-14T08:56:37;15.50;;;9.50;;
12433;SDS011;6281;49.038;8.372;2023-12-14T08:59:06;15.37;;;8.87;;
12433;SDS011;6281;49.038;8.372;2023-12-14T09:01:34;13.43;;;9.10;;
12433;SDS011;6281;49.038;8.372;2023-12-14T09:04:01;13.33;;;9.67;;
12433;SDS011;6281;49.038;8.372;2023-12-14T09:06:28;14.73;;;8.83;;
12433;SDS011;6281;49.038;8.372;2023-12-14T09:08:55;15.80;;;9.47;;
12433;SDS011;6281;49.038;8.372;2023-12-14T09:11:21;12.77;;;9.23;;
12433;SDS011;6281;49.038;8.372;2023-12-14T09:13:48;17.07;;;9.83;;
12433;SDS011;6281;49.038;8.372;2023-12-14T09:16:17;11.73;;;9.03;;
12433;SDS011;6281;49.038;8.372;2023-12-14T09:18:43;11.53;;;8.77;;
12433;SDS011;6281;49.038;8.372;2023-12-14T09:21:10;11.83;;;8.43;;
12433;SDS011;6281;49.038;8.372;2023-12-14T09:23:37;13.40;;;8.40;;
12433;SDS011;6281;49.038;8.372;2023-12-14T09:26:05;12.40;;;8.77;;
12433;SDS011;6281;49.038;8.372;2023-12-14T09:28:32;14.53;;;8.70;;
12433;SDS011;6281;49.038;8.372;2023-12-14T09:30:59;14.00;;;8.33;;
12433;SDS011;6281;49.038;8.372;2023-12-14T09:33:27;9.93;;;7.57;;
12433;SDS011;6281;49.038;8.372;2023-12-14T09:35:55;12.70;;;8.37;;
12433;SDS011;6281;49.038;8.372;2023-12-14T09:38:22;13.93;;;8.23;;
12433;SDS011;6281;49.038;8.372;2023-12-14T09:40:48;14.83;;;8.17;;
12433;SDS011;6281;49.038;8.372;2023-12-14T09:43:15;11.13;;;8.43;;
12433;SDS011;6281;49.038;8.372;2023-12-14T09:45:42;12.67;;;8.63;;
12433;SDS011;6281;49.038;8.372;2023-12-14T09:48:10;10.53;;;7.70;;
12433;SDS011;6281;49.038;8.372;2023-12-14T09:50:40;11.47;;;8.87;;
12433;SDS011;6281;49.038;8.372;2023-12-14T09:53:07;15.17;;;9.33;;
12433;SDS011;6281;49.038;8.372;2023-12-14T09:55:34;13.13;;;8.60;;
12433;SDS011;6281;49.038;8.372;2023-12-14T09:58:01;15.13;;;9.03;;
12433;SDS011;6281;49.038;8.372;2023-12-14T10:00:35;12.83;;;8.63;;
12433;SDS011;6281;49.038;8.372;2023-12-14T10:03:21;12.93;;;8.60;;
12433;SDS011;6281;49.038;8.372;2023-12-14T10:05:53;14.57;;;8.27;;
12433;SDS011;6281;49.038;8.372;2023-12-14T10:08:20;14.80;;;8.83;;
12433;SDS011;6281;49.038;8.372;2023-12-14T10:10:48;13.67;;;8.70;;
12433;SDS011;6281;49.038;8.372;2023-12-14T10:13:16;12.77;;;8.90;;
12433;SDS011;6281;49.038;8.372;2023-12-14T10:15:43;12.50;;;8.60;;
12433;SDS011;6281;49.038;8.372;2023-12-14T10:18:11;13.23;;;8.27;;
12433;SDS011;6281;49.038;8.372;2023-12-14T10:20:38;14.67;;;8.83;;
12433;SDS011;6281;49.038;8.372;2023-12-14T10:23:07;12.47;;;8.77;;
12433;SDS011;6281;49.038;8.372;2023-12-14T10:25:35;14.20;;;8.43;;
12433;SDS011;6281;49.038;8.372;2023-12-14T10:28:02;13.60;;;7.93;;
12433;SDS011;6281;49.038;8.372;2023-12-14T10:30:29;9.87;;;7.20;;
12433;SDS011;6281;49.038;8.372;2023-12-14T10:32:56;11.97;;;7.90;;
12433;SDS011;6281;49.038;8.372;2023-12-14T10:35:23;10.97;;;7.80;;
12433;SDS011;6281;49.038;8.372;2023-12-14T10:37:51;13.07;;;8.47;;
12433;SDS011;6281;49.038;8.372;2023-12-14T10:40:20;13.13;;;7.90;;
12433;SDS011;6281;49.038;8.372;2023-12-14T10:42:49;11.63;;;8.17;;
12433;SDS011;6281;49.038;8.372;2023-12-14T10:45:16;10.23;;;7.23;;
12433;SDS011;6281;49.038;8.372;2023-12-14T10:47:45;15.77;;;8.57;;
12433;SDS011;6281;49.038;8.372;2023-12-14T10:50:13;10.43;;;7.57;;
12433;SDS011;6281;49.038;8.372;2023-12-14T10:52:40;12.50;;;7.20;;
12433;SDS011;6281;49.038;8.372;2023-12-14T10:55:09;14.20;;;8.47;;
12433;SDS011;6281;49.038;8.372;2023-12-14T10:57:45;9.83;;;7.33;;
12433;SDS011;6281;49.038;8.372;2023-12-14T11:00:12;11.80;;;7.70;;
12433;SDS011;6281;49.038;8.372;2023-12-14T11:02:43;11.40;;;7.20;;
12433;SDS011;6281;49.038;8.372;2023-12-14T11:05:12;11.60;;;7.53;;
12433;SDS011;6281;49.038;8.372;2023-12-14T11:07:48;13.90;;;7.57;;
12433;SDS011;6281;49.038;8.372;2023-12-14T11:10:20;11.90;;;7.53;;
12433;SDS011;6281;49.038;8.372;2023-12-14T11:12:53;15.30;;;7.90;;
12433;SDS011;6281;49.038;8.372;2023-12-14T11:15:22;12.40;;;7.53;;
12433;SDS011;6281;49.038;8.372;2023-12-14T11:20:54;12.63;;;8.47;;
12433;SDS011;6281;49.038;8.372;2023-12-14T11:23:33;13.83;;;9.20;;
12433;SDS011;6281;49.038;8.372;2023-12-14T11:26:04;14.10;;;8.40;;
12433;SDS011;6281;49.038;8.372;2023-12-14T11:28:34;14.90;;;8.20;;
12433;SDS011;6281;49.038;8.372;2023-12-14T11:31:02;11.13;;;7.70;;
12433;SDS011;6281;49.038;8.372;2023-12-14T11:33:32;13.40;;;8.37;;
12433;SDS011;6281;49.038;8.372;2023-12-14T11:36:00;12.40;;;8.37;;
12433;SDS011;6281;49.038;8.372;2023-12-14T11:38:28;18.67;;;8.60;;
12433;SDS011;6281;49.038;8.372;2023-12-14T11:40:55;14.13;;;7.93;;
12433;SDS011;6281;49.038;8.372;2023-12-14T11:43:22;11.83;;;7.77;;
12433;SDS011;6281;49.038;8.372;2023-12-14T11:45:52;13.53;;;8.30;;
12433;SDS011;6281;49.038;8.372;2023-12-14T11:48:20;14.80;;;8.37;;
12433;SDS011;6281;49.038;8.372;2023-12-14T11:50:47;15.00;;;8.47;;
12433;SDS011;6281;49.038;8.372;2023-12-14T11:53:14;13.53;;;7.27;;
12433;SDS011;6281;49.038;8.372;2023-12-14T11:55:42;12.07;;;7.80;;
12433;SDS011;6281;49.038;8.372;2023-12-14T11:58:11;10.60;;;7.23;;
12433;SDS011;6281;49.038;8.372;2023-12-14T12:00:39;12.40;;;7.67;;
12433;SDS011;6281;49.038;8.372;2023-12-14T12:03:11;11.33;;;8.37;;
12433;SDS011;6281;49.038;8.372;2023-12-14T12:05:40;13.80;;;7.93;;
12433;SDS011;6281;49.038;8.372;2023-12-14T12:08:08;12.07;;;8.27;;
12433;SDS011;6281;49.038;8.372;2023-12-14T12:10:36;10.37;;;7.47;;
12433;SDS011;6281;49.038;8.372;2023-12-14T12:13:04;11.00;;;7.73;;
12433;SDS011;6281;49.038;8.372;2023-12-14T12:15:32;11.30;;;7.30;;
12433;SDS011;6281;49.038;8.372;2023-12-14T12:18:02;13.30;;;7.57;;
12433;SDS011;6281;49.038;8.372;2023-12-14T12:20:31;10.83;;;7.83;;
12433;SDS011;6281;49.038;8.372;2023-12-14T12:22:58;12.60;;;7.17;;
12433;SDS011;6281;49.038;8.372;2023-12-14T12:25:26;10.77;;;6.37;;
12433;SDS011;6281;49.038;8.372;2023-12-14T12:27:53;12.73;;;7.53;;
12433;SDS011;6281;49.038;8.372;2023-12-14T12:30:20;10.10;;;6.97;;
12433;SDS011;6281;49.038;8.372;2023-12-14T12:32:47;10.57;;;7.23;;
12433;SDS011;6281;49.038;8.372;2023-12-14T12:35:14;10.87;;;6.43;;
12433;SDS011;6281;49.038;8.372;2023-12-14T12:37:43;9.03;;;6.53;;
12433;SDS011;6281;49.038;8.372;2023-12-14T12:40:10;11.13;;;6.37;;
12433;SDS011;6281;49.038;8.372;2023-12-14T12:42:37;10.10;;;5.93;;
12433;SDS011;6281;49.038;8.372;2023-12-14T12:45:04;8.43;;;5.80;;
12433;SDS011;6281;49.038;8.372;2023-12-14T12:47:31;11.03;;;6.33;;
12433;SDS011;6281;49.038;8.372;2023-12-14T12:49:58;11.60;;;6.03;;
12433;SDS011;6281;49.038;8.372;2023-12-14T12:52:25;8.33;;;5.73;;
12433;SDS011;6281;49.038;8.372;2023-12-14T12:54:53;8.03;;;5.60;;
12433;SDS011;6281;49.038;8.372;2023-12-14T12:57:20;7.93;;;5.17;;
12433;SDS011;6281;49.038;8.372;2023-12-14T12:59:47;11.30;;;6.00;;
12433;SDS011;6281;49.038;8.372;2023-12-14T13:02:14;7.93;;;5.77;;
12433;SDS011;6281;49.038;8.372;2023-12-14T13:04:40;9.17;;;5.60;;
12433;SDS011;6281;49.038;8.372;2023-12-14T13:07:07;10.57;;;6.10;;
12433;SDS011;6281;49.038;8.372;2023-12-14T13:09:34;9.57;;;6.10;;
12433;SDS011;6281;49.038;8.372;2023-12-14T13:12:04;9.07;;;6.43;;
12433;SDS011;6281;49.038;8.372;2023-12-14T13:14:31;10.47;;;6.87;;
12433;SDS011;6281;49.038;8.372;2023-12-14T13:16:58;8.57;;;6.23;;
12433;SDS011;6281;49.038;8.372;2023-12-14T13:19:25;9.93;;;6.67;;
12433;SDS011;6281;49.038;8.372;2023-12-14T13:21:53;14.73;;;7.90;;
12433;SDS011;6281;49.038;8.372;2023-12-14T13:24:21;10.10;;;7.13;;
12433;SDS011;6281;49.038;8.372;2023-12-14T13:26:49;8.97;;;6.50;;
12433;SDS011;6281;49.038;8.372;2023-12-14T13:29:17;9.97;;;6.30;;
12433;SDS011;6281;49.038;8.372;2023-12-14T13:31:45;11.50;;;6.27;;
12433;SDS011;6281;49.038;8.372;2023-12-14T13:34:12;9.07;;;5.90;;
12433;SDS011;6281;49.038;8.372;2023-12-14T13:36:39;8.83;;;5.93;;
12433;SDS011;6281;49.038;8.372;2023-12-14T13:39:05;10.03;;;6.30;;
12433;SDS011;6281;49.038;8.372;2023-12-14T13:41:32;9.30;;;6.17;;
12433;SDS011;6281;49.038;8.372;2023-12-14T13:43:59;8.77;;;5.53;;
12433;SDS011;6281;49.038;8.372;2023-12-14T13:46:28;8.07;;;5.30;;
12433;SDS011;6281;49.038;8.372;2023-12-14T13:48:55;7.27;;;5.03;;
12433;SDS011;6281;49.038;8.372;2023-12-14T13:51:22;7.03;;;5.40;;
12433;SDS011;6281;49.038;8.372;2023-12-14T13:53:48;7.07;;;4.53;;
12433;SDS011;6281;49.038;8.372;2023-12-14T13:56:16;8.53;;;5.07;;
12433;SDS011;6281;49.038;8.372;2023-12-14T13:58:43;8.13;;;5.00;;
12433;SDS011;6281;49.038;8.372;2023-12-14T14:01:09;8.30;;;5.37;;
12433;SDS011;6281;49.038;8.372;2023-12-14T14:03:37;11.40;;;5.97;;
12433;SDS011;6281;49.038;8.372;2023-12-14T14:06:06;6.87;;;5.73;;
12433;SDS011;6281;49.038;8.372;2023-12-14T14:08:33;8.07;;;5.23;;
12433;SDS011;6281;49.038;8.372;2023-12-14T14:11:00;8.27;;;5.50;;
12433;SDS011;6281;49.038;8.372;2023-12-14T14:13:28;6.87;;;4.93;;
12433;SDS011;6281;49.038;8.372;2023-12-14T14:15:54;7.07;;;5.00;;
12433;SDS011;6281;49.038;8.372;2023-12-14T14:18:21;7.00;;;5.40;;
12433;SDS011;6281;49.038;8.372;2023-12-14T14:20:49;8.13;;;5.57;;
12433;SDS011;6281;49.038;8.372;2023-12-14T14:23:16;7.10;;;4.90;;
12433;SDS011;6281;49.038;8.372;2023-12-14T14:25:43;10.97;;;5.13;;
12433;SDS011;6281;49.038;8.372;2023-12-14T14:28:10;7.60;;;5.00;;
12433;SDS011;6281;49.038;8.372;2023-12-14T14:30:37;8.90;;;4.90;;
12433;SDS011;6281;49.038;8.372;2023-12-14T14:33:03;8.67;;;5.20;;
12433;SDS011;6281;49.038;8.372;2023-12-14T14:35:31;7.13;;;5.30;;
12433;SDS011;6281;49.038;8.372;2023-12-14T14:38:00;7.10;;;5.10;;
12433;SDS011;6281;49.038;8.372;2023-12-14T14:40:27;13.10;;;5.23;;
12433;SDS011;6281;49.038;8.372;2023-12-14T14:42:54;7.63;;;5.13;;
12433;SDS011;6281;49.038;8.372;2023-12-14T14:45:20;6.73;;;4.90;;
12433;SDS011;6281;49.038;8.372;2023-12-14T14:47:47;7.80;;;4.87;;
12433;SDS011;6281;49.038;8.372;2023-12-14T14:50:14;5.83;;;4.13;;